sensor_id;sensor_type;location;lat;lon;timestamp;temperature;humidity
13211;DHT22;6670;51.53087800;7.23266500;2023-09-19T00:00:38;17.00;99.90
13211;DHT22;6670;51.53087800;7.23266500;2023-09-19T00:03:09;16.90;99.90
13211;DHT22;6670;51.53087800;7.23266500;2023-09-19T00:05:38;16.80;99.90
13211;DHT22;6670;51.53087800;7.23266500;2023-09-19T00:08:10;16.80;99.90
13211;DHT22;6670;51.53087800;7.23266500;2023-09-19T00:10:39;16.70;99.90
13211;DHT22;6670;51.53087800;7.23266500;2023-09-19T00:13:09;16.80;99.90
13211;DHT22;6670;51.53087800;7.23266500;2023-09-19T00:15:40;16.80;99.90
13211;DHT22;6670;51.53087800;7.23266500;2023-09-19T00:18:09;16.80;99.90
13211;DHT22;6670;51.53087800;7.23266500;2023-09-19T00:20:38;16.80;99.90
13211;DHT22;6670;51.53087800;7.23266500;2023-09-19T00:23:06;16.60;99.90
13211;DHT22;6670;51.53087800;7.23266500;2023-09-19T00:25:34;16.60;99.90
13211;DHT22;6670;51.53087800;7.23266500;2023-09-19T00:28:03;16.60;99.90
13211;DHT22;6670;51.53087800;7.23266500;2023-09-19T00:30:32;16.50;99.90
13211;DHT22;6670;51.53087800;7.23266500;2023-09-19T00:33:00;16.60;99.90
13211;DHT22;6670;51.53087800;7.23266500;2023-09-19T00:35:33;16.60;99.90
13211;DHT22;6670;51.53087800;7.23266500;2023-09-19T00:38:00;16.50;99.90
13211;DHT22;6670;51.53087800;7.23266500;2023-09-19T00:40:29;16.50;99.90
13211;DHT22;6670;51.53087800;7.23266500;2023-09-19T00:42:59;16.40;99.90
13211;DHT22;6670;51.53087800;7.23266500;2023-09-19T00:45:27;16.40;99.90
13211;DHT22;6670;51.53087800;7.23266500;2023-09-19T00:47:55;16.40;99.90
13211;DHT22;6670;51.53087800;7.23266500;2023-09-19T00:50:25;16.30;99.90
13211;DHT22;6670;51.53087800;7.23266500;2023-09-19T00:52:56;16.30;99.90
13211;DHT22;6670;51.53087800;7.23266500;2023-09-19T00:55:25;16.20;99.90
13211;DHT22;6670;51.53087800;7.23266500;2023-09-19T00:57:55;16.40;99.90
13211;DHT22;6670;51.53087800;7.23266500;2023-09-19T01:00:23;16.30;99.90
13211;DHT22;6670;51.53087800;7.23266500;2023-09-19T01:02:50;16.30;99.90
13211;DHT22;6670;51.53087800;7.23266500;2023-09-19T01:05:18;16.20;99.90
13211;DHT22;6670;51.53087800;7.23266500;2023-09-19T01:07:46;16.30;99.90
13211;DHT22;6670;51.53087800;7.23266500;2023-09-19T01:10:18;16.20;99.90
13211;DHT22;6670;51.53087800;7.23266500;2023-09-19T01:12:54;16.20;99.90
13211;DHT22;6670;51.53087800;7.23266500;2023-09-19T01:15:44;16.10;99.90
13211;DHT22;6670;51.53087800;7.23266500;2023-09-19T01:18:27;16.10;99.90
13211;DHT22;6670;51.53087800;7.23266500;2023-09-19T01:21:03;16.10;99.90
13211;DHT22;6670;51.53087800;7.23266500;2023-09-19T01:23:47;16.00;99.90
13211;DHT22;6670;51.53087800;7.23266500;2023-09-19T01:26:34;16.00;99.90
13211;DHT22;6670;51.53087800;7.23266500;2023-09-19T01:29:21;16.00;99.90
13211;DHT22;6670;51.53087800;7.23266500;2023-09-19T01:31:59;16.00;99.90
13211;DHT22;6670;51.53087800;7.23266500;2023-09-19T01:34:43;16.00;99.90
13211;DHT22;6670;51.53087800;7.23266500;2023-09-19T01:37:13;16.00;99.90
13211;DHT22;6670;51.53087800;7.23266500;2023-09-19T01:39:45;16.00;99.90
13211;DHT22;6670;51.53087800;7.23266500;2023-09-19T01:42:21;15.90;99.90
13211;DHT22;6670;51.53087800;7.23266500;2023-09-19T01:44:57;15.90;99.90
13211;DHT22;6670;51.53087800;7.23266500;2023-09-19T01:47:34;16.00;99.90
13211;DHT22;6670;51.53087800;7.23266500;2023-09-19T01:50:13;16.00;99.90
13211;DHT22;6670;51.53087800;7.23266500;2023-09-19T01:52:49;15.90;99.90
13211;DHT22;6670;51.53087800;7.23266500;2023-09-19T01:55:21;16.10;99.90
13211;DHT22;6670;51.53087800;7.23266500;2023-09-19T01:57:54;16.00;99.90
13211;DHT22;6670;51.53087800;7.23266500;2023-09-19T02:00:26;15.90;99.90
13211;DHT22;6670;51.53087800;7.23266500;2023-09-19T02:02:58;15.90;99.90
13211;DHT22;6670;51.53087800;7.23266500;2023-09-19T02:05:26;15.90;99.90
13211;DHT22;6670;51.53087800;7.23266500;2023-09-19T02:07:54;15.80;99.90
13211;DHT22;6670;51.53087800;7.23266500;2023-09-19T02:10:22;15.90;99.90
13211;DHT22;6670;51.53087800;7.23266500;2023-09-19T02:12:50;15.80;99.90
13211;DHT22;6670;51.53087800;7.23266500;2023-09-19T02:15:18;15.80;99.90
13211;DHT22;6670;51.53087800;7.23266500;2023-09-19T02:17:45;15.80;99.90
13211;DHT22;6670;51.53087800;7.23266500;2023-09-19T02:20:14;15.90;99.90
13211;DHT22;6670;51.53087800;7.23266500;2023-09-19T02:22:43;15.70;99.90
13211;DHT22;6670;51.53087800;7.23266500;2023-09-19T02:25:11;15.70;99.90
13211;DHT22;6670;51.53087800;7.23266500;2023-09-19T02:27:40;15.70;99.90
13211;DHT22;6670;51.53087800;7.23266500;2023-09-19T02:30:08;15.70;99.90
13211;DHT22;6670;51.53087800;7.23266500;2023-09-19T02:32:36;15.70;99.90
13211;DHT22;6670;51.53087800;7.23266500;2023-09-19T02:35:06;15.60;99.90
13211;DHT22;6670;51.53087800;7.23266500;2023-09-19T02:37:38;15.60;99.90
13211;DHT22;6670;51.53087800;7.23266500;2023-09-19T02:40:07;15.60;99.90
13211;DHT22;6670;51.53087800;7.23266500;2023-09-19T02:42:45;15.50;99.90
13211;DHT22;6670;51.53087800;7.23266500;2023-09-19T02:45:16;15.60;99.90
13211;DHT22;6670;51.53087800;7.23266500;2023-09-19T02:47:48;15.60;99.90
13211;DHT22;6670;51.53087800;7.23266500;2023-09-19T02:50:16;15.50;99.90
13211;DHT22;6670;51.53087800;7.23266500;2023-09-19T02:52:46;15.60;99.90
13211;DHT22;6670;51.53087800;7.23266500;2023-09-19T02:55:15;15.60;99.90
13211;DHT22;6670;51.53087800;7.23266500;2023-09-19T02:57:46;15.60;99.90
13211;DHT22;6670;51.53087800;7.23266500;2023-09-19T03:00:15;15.60;99.90
13211;DHT22;6670;51.53087800;7.23266500;2023-09-19T03:02:43;15.50;99.90
13211;DHT22;6670;51.53087800;7.23266500;2023-09-19T03:05:12;15.50;99.90
13211;DHT22;6670;51.53087800;7.23266500;2023-09-19T03:07:40;15.60;99.90
13211;DHT22;6670;51.53087800;7.23266500;2023-09-19T03:10:10;15.60;99.90
13211;DHT22;6670;51.53087800;7.23266500;2023-09-19T03:12:38;15.50;99.90
13211;DHT22;6670;51.53087800;7.23266500;2023-09-19T03:15:07;15.50;99.90
13211;DHT22;6670;51.53087800;7.23266500;2023-09-19T03:17:36;15.50;99.90
13211;DHT22;6670;51.53087800;7.23266500;2023-09-19T03:20:04;15.50;99.90
13211;DHT22;6670;51.53087800;7.23266500;2023-09-19T03:22:34;15.50;99.90
13211;DHT22;6670;51.53087800;7.23266500;2023-09-19T03:25:02;15.40;99.90
13211;DHT22;6670;51.53087800;7.23266500;2023-09-19T03:27:36;15.40;99.90
13211;DHT22;6670;51.53087800;7.23266500;2023-09-19T03:30:06;15.50;99.90
13211;DHT22;6670;51.53087800;7.23266500;2023-09-19T03:32:35;15.40;99.90
13211;DHT22;6670;51.53087800;7.23266500;2023-09-19T03:35:08;15.30;99.90
13211;DHT22;6670;51.53087800;7.23266500;2023-09-19T03:37:37;15.40;99.90
13211;DHT22;6670;51.53087800;7.23266500;2023-09-19T03:40:05;15.30;99.90
13211;DHT22;6670;51.53087800;7.23266500;2023-09-19T03:42:37;15.50;99.90
13211;DHT22;6670;51.53087800;7.23266500;2023-09-19T03:45:06;15.30;99.90
13211;DHT22;6670;51.53087800;7.23266500;2023-09-19T03:47:33;15.30;99.90
13211;DHT22;6670;51.53087800;7.23266500;2023-09-19T03:50:04;15.30;99.90
13211;DHT22;6670;51.53087800;7.23266500;2023-09-19T03:52:31;15.30;99.90
13211;DHT22;6670;51.53087800;7.23266500;2023-09-19T03:54:58;15.30;99.90
13211;DHT22;6670;51.53087800;7.23266500;2023-09-19T03:57:26;15.30;99.90
13211;DHT22;6670;51.53087800;7.23266500;2023-09-19T03:59:55;15.30;99.90
13211;DHT22;6670;51.53087800;7.23266500;2023-09-19T04:02:23;15.20;99.90
13211;DHT22;6670;51.53087800;7.23266500;2023-09-19T04:04:51;15.20;99.90
13211;DHT22;6670;51.53087800;7.23266500;2023-09-19T04:07:19;15.20;99.90
13211;DHT22;6670;51.53087800;7.23266500;2023-09-19T04:09:48;15.20;99.90
13211;DHT22;6670;51.53087800;7.23266500;2023-09-19T04:12:16;15.20;99.90
13211;DHT22;6670;51.53087800;7.23266500;2023-09-19T04:14:45;15.20;99.90
13211;DHT22;6670;51.53087800;7.23266500;2023-09-19T04:17:16;15.10;99.90
13211;DHT22;6670;51.53087800;7.23266500;2023-09-19T04:19:44;15.10;99.90
13211;DHT22;6670;51.53087800;7.23266500;2023-09-19T04:22:12;15.20;99.90
13211;DHT22;6670;51.53087800;7.23266500;2023-09-19T04:24:39;15.10;99.90
13211;DHT22;6670;51.53087800;7.23266500;2023-09-19T04:27:07;15.20;99.90
13211;DHT22;6670;51.53087800;7.23266500;2023-09-19T04:29:35;15.10;99.90
13211;DHT22;6670;51.53087800;7.23266500;2023-09-19T04:32:04;15.10;99.90
13211;DHT22;6670;51.53087800;7.23266500;2023-09-19T04:34:33;15.10;99.90
13211;DHT22;6670;51.53087800;7.23266500;2023-09-19T04:37:01;15.20;99.90
13211;DHT22;6670;51.53087800;7.23266500;2023-09-19T04:39:29;15.10;99.90
13211;DHT22;6670;51.53087800;7.23266500;2023-09-19T04:41:57;15.10;99.90
13211;DHT22;6670;51.53087800;7.23266500;2023-09-19T04:44:25;15.10;99.90
13211;DHT22;6670;51.53087800;7.23266500;2023-09-19T04:46:53;15.10;99.90
13211;DHT22;6670;51.53087800;7.23266500;2023-09-19T04:49:20;15.10;99.90
13211;DHT22;6670;51.53087800;7.23266500;2023-09-19T04:51:49;15.10;99.90
13211;DHT22;6670;51.53087800;7.23266500;2023-09-19T04:54:16;15.10;99.90
13211;DHT22;6670;51.53087800;7.23266500;2023-09-19T04:56:44;15.00;99.90
13211;DHT22;6670;51.53087800;7.23266500;2023-09-19T04:59:11;15.00;99.90
13211;DHT22;6670;51.53087800;7.23266500;2023-09-19T05:01:39;15.10;99.90
13211;DHT22;6670;51.53087800;7.23266500;2023-09-19T05:04:06;15.10;99.90
13211;DHT22;6670;51.53087800;7.23266500;2023-09-19T05:06:34;15.00;99.90
13211;DHT22;6670;51.53087800;7.23266500;2023-09-19T05:09:03;15.00;99.90
13211;DHT22;6670;51.53087800;7.23266500;2023-09-19T05:11:31;15.10;99.90
13211;DHT22;6670;51.53087800;7.23266500;2023-09-19T05:13:59;15.10;99.90
13211;DHT22;6670;51.53087800;7.23266500;2023-09-19T05:16:29;15.10;99.90
13211;DHT22;6670;51.53087800;7.23266500;2023-09-19T05:18:57;15.00;99.90
13211;DHT22;6670;51.53087800;7.23266500;2023-09-19T05:21:26;15.00;99.90
13211;DHT22;6670;51.53087800;7.23266500;2023-09-19T05:23:54;15.10;99.90
13211;DHT22;6670;51.53087800;7.23266500;2023-09-19T05:26:24;15.10;99.90
13211;DHT22;6670;51.53087800;7.23266500;2023-09-19T05:28:55;15.10;99.90
13211;DHT22;6670;51.53087800;7.23266500;2023-09-19T05:31:25;15.00;99.90
13211;DHT22;6670;51.53087800;7.23266500;2023-09-19T05:33:52;15.00;99.90
13211;DHT22;6670;51.53087800;7.23266500;2023-09-19T05:36:20;15.10;99.90
13211;DHT22;6670;51.53087800;7.23266500;2023-09-19T05:38:53;15.10;99.90
13211;DHT22;6670;51.53087800;7.23266500;2023-09-19T05:41:20;15.10;99.90
13211;DHT22;6670;51.53087800;7.23266500;2023-09-19T05:43:52;15.00;99.90
13211;DHT22;6670;51.53087800;7.23266500;2023-09-19T05:46:20;15.10;99.90
13211;DHT22;6670;51.53087800;7.23266500;2023-09-19T05:48:48;15.10;99.90
13211;DHT22;6670;51.53087800;7.23266500;2023-09-19T05:51:18;15.10;99.90
13211;DHT22;6670;51.53087800;7.23266500;2023-09-19T05:53:48;15.10;99.90
13211;DHT22;6670;51.53087800;7.23266500;2023-09-19T05:56:16;15.20;99.90
13211;DHT22;6670;51.53087800;7.23266500;2023-09-19T05:58:45;15.20;99.90
13211;DHT22;6670;51.53087800;7.23266500;2023-09-19T06:01:14;15.10;99.90
13211;DHT22;6670;51.53087800;7.23266500;2023-09-19T06:03:41;15.20;99.90
13211;DHT22;6670;51.53087800;7.23266500;2023-09-19T06:06:08;15.20;99.90
13211;DHT22;6670;51.53087800;7.23266500;2023-09-19T06:08:38;15.30;99.90
13211;DHT22;6670;51.53087800;7.23266500;2023-09-19T06:11:05;15.30;99.90
13211;DHT22;6670;51.53087800;7.23266500;2023-09-19T06:13:35;15.30;99.90
13211;DHT22;6670;51.53087800;7.23266500;2023-09-19T06:16:05;15.30;99.90
13211;DHT22;6670;51.53087800;7.23266500;2023-09-19T06:18:34;15.30;99.90
13211;DHT22;6670;51.53087800;7.23266500;2023-09-19T06:21:02;15.40;99.90
13211;DHT22;6670;51.53087800;7.23266500;2023-09-19T06:23:33;15.40;99.90
13211;DHT22;6670;51.53087800;7.23266500;2023-09-19T06:26:01;15.30;99.90
13211;DHT22;6670;51.53087800;7.23266500;2023-09-19T06:28:29;15.40;99.90
13211;DHT22;6670;51.53087800;7.23266500;2023-09-19T06:30:57;15.30;99.90
13211;DHT22;6670;51.53087800;7.23266500;2023-09-19T06:33:24;15.40;99.90
13211;DHT22;6670;51.53087800;7.23266500;2023-09-19T06:35:59;15.30;99.90
13211;DHT22;6670;51.53087800;7.23266500;2023-09-19T06:38:28;15.40;99.90
13211;DHT22;6670;51.53087800;7.23266500;2023-09-19T06:40:56;15.40;99.90
13211;DHT22;6670;51.53087800;7.23266500;2023-09-19T06:43:28;15.50;99.90
13211;DHT22;6670;51.53087800;7.23266500;2023-09-19T06:45:57;15.40;99.90
13211;DHT22;6670;51.53087800;7.23266500;2023-09-19T06:48:25;15.40;99.90
13211;DHT22;6670;51.53087800;7.23266500;2023-09-19T06:50:55;15.40;99.90
13211;DHT22;6670;51.53087800;7.23266500;2023-09-19T06:53:25;15.50;99.90
13211;DHT22;6670;51.53087800;7.23266500;2023-09-19T06:55:53;15.50;99.90
13211;DHT22;6670;51.53087800;7.23266500;2023-09-19T06:58:21;15.50;99.90
13211;DHT22;6670;51.53087800;7.23266500;2023-09-19T07:00:48;15.50;99.90
13211;DHT22;6670;51.53087800;7.23266500;2023-09-19T07:03:16;15.60;99.90
13211;DHT22;6670;51.53087800;7.23266500;2023-09-19T07:05:47;15.70;99.90
13211;DHT22;6670;51.53087800;7.23266500;2023-09-19T07:08:15;15.70;99.90
13211;DHT22;6670;51.53087800;7.23266500;2023-09-19T07:10:50;15.80;99.90
13211;DHT22;6670;51.53087800;7.23266500;2023-09-19T07:13:20;16.10;99.90
13211;DHT22;6670;51.53087800;7.23266500;2023-09-19T07:15:47;16.00;99.90
13211;DHT22;6670;51.53087800;7.23266500;2023-09-19T07:18:16;15.90;99.90
13211;DHT22;6670;51.53087800;7.23266500;2023-09-19T07:20:57;15.90;99.90
13211;DHT22;6670;51.53087800;7.23266500;2023-09-19T07:23:27;16.50;99.90
13211;DHT22;6670;51.53087800;7.23266500;2023-09-19T07:26:00;16.00;99.90
13211;DHT22;6670;51.53087800;7.23266500;2023-09-19T07:28:31;15.90;99.90
13211;DHT22;6670;51.53087800;7.23266500;2023-09-19T07:31:03;16.30;99.90
13211;DHT22;6670;51.53087800;7.23266500;2023-09-19T07:33:31;16.00;99.90
13211;DHT22;6670;51.53087800;7.23266500;2023-09-19T07:35:58;15.90;99.90
13211;DHT22;6670;51.53087800;7.23266500;2023-09-19T07:38:26;15.90;99.90
13211;DHT22;6670;51.53087800;7.23266500;2023-09-19T07:41:01;16.00;99.90
13211;DHT22;6670;51.53087800;7.23266500;2023-09-19T07:43:29;15.90;99.90
13211;DHT22;6670;51.53087800;7.23266500;2023-09-19T07:45:56;15.90;99.90
13211;DHT22;6670;51.53087800;7.23266500;2023-09-19T07:48:26;16.00;99.90
13211;DHT22;6670;51.53087800;7.23266500;2023-09-19T07:50:54;16.00;99.90
13211;DHT22;6670;51.53087800;7.23266500;2023-09-19T07:53:21;16.00;99.90
13211;DHT22;6670;51.53087800;7.23266500;2023-09-19T07:55:49;16.10;99.90
13211;DHT22;6670;51.53087800;7.23266500;2023-09-19T07:58:18;16.10;99.90
13211;DHT22;6670;51.53087800;7.23266500;2023-09-19T08:00:45;16.10;99.90
13211;DHT22;6670;51.53087800;7.23266500;2023-09-19T08:03:13;16.10;99.90
13211;DHT22;6670;51.53087800;7.23266500;2023-09-19T08:05:41;16.10;99.90
13211;DHT22;6670;51.53087800;7.23266500;2023-09-19T08:08:09;16.10;99.90
13211;DHT22;6670;51.53087800;7.23266500;2023-09-19T08:10:37;16.20;99.90
13211;DHT22;6670;51.53087800;7.23266500;2023-09-19T08:13:06;16.20;99.90
13211;DHT22;6670;51.53087800;7.23266500;2023-09-19T08:15:43;16.20;99.90
13211;DHT22;6670;51.53087800;7.23266500;2023-09-19T08:18:11;16.20;99.90
13211;DHT22;6670;51.53087800;7.23266500;2023-09-19T08:20:39;16.20;99.90
13211;DHT22;6670;51.53087800;7.23266500;2023-09-19T08:23:08;16.30;99.90
13211;DHT22;6670;51.53087800;7.23266500;2023-09-19T08:25:36;16.30;99.90
13211;DHT22;6670;51.53087800;7.23266500;2023-09-19T08:28:06;16.40;99.90
13211;DHT22;6670;51.53087800;7.23266500;2023-09-19T08:30:39;16.30;99.90
13211;DHT22;6670;51.53087800;7.23266500;2023-09-19T08:33:07;16.40;99.90
13211;DHT22;6670;51.53087800;7.23266500;2023-09-19T08:35:35;16.30;99.90
13211;DHT22;6670;51.53087800;7.23266500;2023-09-19T08:38:04;16.30;99.90
13211;DHT22;6670;51.53087800;7.23266500;2023-09-19T08:40:32;16.40;99.90
13211;DHT22;6670;51.53087800;7.23266500;2023-09-19T08:43:00;16.50;99.90
13211;DHT22;6670;51.53087800;7.23266500;2023-09-19T08:45:28;16.50;99.90
13211;DHT22;6670;51.53087800;7.23266500;2023-09-19T08:48:03;16.60;99.90
13211;DHT22;6670;51.53087800;7.23266500;2023-09-19T08:50:42;16.60;99.90
13211;DHT22;6670;51.53087800;7.23266500;2023-09-19T08:53:11;16.60;99.90
13211;DHT22;6670;51.53087800;7.23266500;2023-09-19T08:55:46;16.60;99.90
13211;DHT22;6670;51.53087800;7.23266500;2023-09-19T08:58:17;16.60;99.90
13211;DHT22;6670;51.53087800;7.23266500;2023-09-19T09:00:48;16.60;99.90
13211;DHT22;6670;51.53087800;7.23266500;2023-09-19T09:03:20;16.60;99.90
13211;DHT22;6670;51.53087800;7.23266500;2023-09-19T09:05:50;16.70;99.90
13211;DHT22;6670;51.53087800;7.23266500;2023-09-19T09:08:19;16.90;99.90
13211;DHT22;6670;51.53087800;7.23266500;2023-09-19T09:10:47;16.90;99.90
13211;DHT22;6670;51.53087800;7.23266500;2023-09-19T09:13:15;16.90;99.90
13211;DHT22;6670;51.53087800;7.23266500;2023-09-19T09:15:43;16.90;99.90
13211;DHT22;6670;51.53087800;7.23266500;2023-09-19T09:18:11;17.00;99.90
13211;DHT22;6670;51.53087800;7.23266500;2023-09-19T09:20:40;17.10;99.90
13211;DHT22;6670;51.53087800;7.23266500;2023-09-19T09:23:10;17.20;99.90
13211;DHT22;6670;51.53087800;7.23266500;2023-09-19T09:25:50;17.30;99.90
13211;DHT22;6670;51.53087800;7.23266500;2023-09-19T09:28:24;17.30;99.90
13211;DHT22;6670;51.53087800;7.23266500;2023-09-19T09:30:52;17.30;99.90
13211;DHT22;6670;51.53087800;7.23266500;2023-09-19T09:33:21;17.30;99.90
13211;DHT22;6670;51.53087800;7.23266500;2023-09-19T09:35:52;17.30;99.90
13211;DHT22;6670;51.53087800;7.23266500;2023-09-19T09:38:20;17.40;99.90
13211;DHT22;6670;51.53087800;7.23266500;2023-09-19T09:40:52;17.50;99.90
13211;DHT22;6670;51.53087800;7.23266500;2023-09-19T09:43:30;17.50;99.90
13211;DHT22;6670;51.53087800;7.23266500;2023-09-19T09:46:22;17.50;99.90
13211;DHT22;6670;51.53087800;7.23266500;2023-09-19T09:49:10;17.70;99.90
13211;DHT22;6670;51.53087800;7.23266500;2023-09-19T09:51:49;17.70;99.90
13211;DHT22;6670;51.53087800;7.23266500;2023-09-19T09:54:26;17.70;99.90
13211;DHT22;6670;51.53087800;7.23266500;2023-09-19T09:57:01;17.70;99.90
13211;DHT22;6670;51.53087800;7.23266500;2023-09-19T09:59:45;17.60;99.90
13211;DHT22;6670;51.53087800;7.23266500;2023-09-19T10:02:17;17.60;99.90
13211;DHT22;6670;51.53087800;7.23266500;2023-09-19T10:04:51;17.70;99.90
13211;DHT22;6670;51.53087800;7.23266500;2023-09-19T10:07:28;18.10;99.90
13211;DHT22;6670;51.53087800;7.23266500;2023-09-19T10:09:59;18.20;99.90
13211;DHT22;6670;51.53087800;7.23266500;2023-09-19T10:12:41;18.20;99.90
13211;DHT22;6670;51.53087800;7.23266500;2023-09-19T10:15:11;18.30;99.90
13211;DHT22;6670;51.53087800;7.23266500;2023-09-19T10:17:44;18.50;99.90
13211;DHT22;6670;51.53087800;7.23266500;2023-09-19T10:20:16;18.40;99.90
13211;DHT22;6670;51.53087800;7.23266500;2023-09-19T10:23:05;18.40;99.90
13211;DHT22;6670;51.53087800;7.23266500;2023-09-19T10:25:37;18.70;99.90
13211;DHT22;6670;51.53087800;7.23266500;2023-09-19T10:28:06;18.80;99.90
13211;DHT22;6670;51.53087800;7.23266500;2023-09-19T10:30:51;18.80;99.90
13211;DHT22;6670;51.53087800;7.23266500;2023-09-19T10:33:20;18.90;99.90
13211;DHT22;6670;51.53087800;7.23266500;2023-09-19T10:35:50;18.80;99.90
13211;DHT22;6670;51.53087800;7.23266500;2023-09-19T10:38:23;18.60;99.90
13211;DHT22;6670;51.53087800;7.23266500;2023-09-19T10:40:53;18.50;99.90
13211;DHT22;6670;51.53087800;7.23266500;2023-09-19T10:43:25;18.40;99.90
13211;DHT22;6670;51.53087800;7.23266500;2023-09-19T10:46:02;18.40;99.90
13211;DHT22;6670;51.53087800;7.23266500;2023-09-19T10:48:30;18.40;99.90
13211;DHT22;6670;51.53087800;7.23266500;2023-09-19T10:51:02;18.40;99.90
13211;DHT22;6670;51.53087800;7.23266500;2023-09-19T10:53:43;18.40;99.90
13211;DHT22;6670;51.53087800;7.23266500;2023-09-19T10:56:29;18.50;99.90
13211;DHT22;6670;51.53087800;7.23266500;2023-09-19T10:59:06;18.80;99.90
13211;DHT22;6670;51.53087800;7.23266500;2023-09-19T11:01:53;18.80;99.90
13211;DHT22;6670;51.53087800;7.23266500;2023-09-19T11:04:24;18.90;99.90
13211;DHT22;6670;51.53087800;7.23266500;2023-09-19T11:07:02;19.00;99.90
13211;DHT22;6670;51.53087800;7.23266500;2023-09-19T11:09:45;18.80;99.90
13211;DHT22;6670;51.53087800;7.23266500;2023-09-19T11:12:48;18.90;99.90
13211;DHT22;6670;51.53087800;7.23266500;2023-09-19T11:18:53;18.90;99.90
13211;DHT22;6670;51.53087800;7.23266500;2023-09-19T11:21:56;19.10;99.90
13211;DHT22;6670;51.53087800;7.23266500;2023-09-19T11:24:34;19.30;99.90
13211;DHT22;6670;51.53087800;7.23266500;2023-09-19T11:27:12;19.00;99.90
13211;DHT22;6670;51.53087800;7.23266500;2023-09-19T11:29:40;19.20;99.90
13211;DHT22;6670;51.53087800;7.23266500;2023-09-19T11:32:11;19.30;99.90
13211;DHT22;6670;51.53087800;7.23266500;2023-09-19T11:34:43;19.50;99.90
13211;DHT22;6670;51.53087800;7.23266500;2023-09-19T11:40:45;19.60;99.90
13211;DHT22;6670;51.53087800;7.23266500;2023-09-19T11:43:34;19.20;99.90
13211;DHT22;6670;51.53087800;7.23266500;2023-09-19T11:46:08;19.30;99.90
13211;DHT22;6670;51.53087800;7.23266500;2023-09-19T11:48:39;19.60;99.90
13211;DHT22;6670;51.53087800;7.23266500;2023-09-19T11:51:15;19.80;99.90
13211;DHT22;6670;51.53087800;7.23266500;2023-09-19T11:53:49;19.40;99.90
13211;DHT22;6670;51.53087800;7.23266500;2023-09-19T11:56:18;19.60;99.90
13211;DHT22;6670;51.53087800;7.23266500;2023-09-19T11:58:49;19.80;99.90
13211;DHT22;6670;51.53087800;7.23266500;2023-09-19T12:01:24;19.80;99.90
13211;DHT22;6670;51.53087800;7.23266500;2023-09-19T12:03:56;19.60;99.90
13211;DHT22;6670;51.53087800;7.23266500;2023-09-19T12:06:25;19.60;99.90
13211;DHT22;6670;51.53087800;7.23266500;2023-09-19T12:08:53;19.70;99.90
13211;DHT22;6670;51.53087800;7.23266500;2023-09-19T12:11:22;19.50;99.90
13211;DHT22;6670;51.53087800;7.23266500;2023-09-19T12:13:51;19.50;99.90
13211;DHT22;6670;51.53087800;7.23266500;2023-09-19T12:16:20;19.50;99.90
13211;DHT22;6670;51.53087800;7.23266500;2023-09-19T12:18:50;19.60;99.90
13211;DHT22;6670;51.53087800;7.23266500;2023-09-19T12:21:25;19.50;99.90
13211;DHT22;6670;51.53087800;7.23266500;2023-09-19T12:23:58;19.60;99.90
13211;DHT22;6670;51.53087800;7.23266500;2023-09-19T12:26:26;20.00;99.80
13211;DHT22;6670;51.53087800;7.23266500;2023-09-19T12:29:10;20.00;99.90
13211;DHT22;6670;51.53087800;7.23266500;2023-09-19T12:31:56;20.10;99.10
13211;DHT22;6670;51.53087800;7.23266500;2023-09-19T12:34:25;20.00;98.10
13211;DHT22;6670;51.53087800;7.23266500;2023-09-19T12:37:08;20.10;96.90
13211;DHT22;6670;51.53087800;7.23266500;2023-09-19T12:39:39;20.20;97.20
13211;DHT22;6670;51.53087800;7.23266500;2023-09-19T12:42:10;20.40;97.30
13211;DHT22;6670;51.53087800;7.23266500;2023-09-19T12:44:46;20.50;96.60
13211;DHT22;6670;51.53087800;7.23266500;2023-09-19T12:47:27;20.60;96.60
13211;DHT22;6670;51.53087800;7.23266500;2023-09-19T12:50:06;20.50;96.10
13211;DHT22;6670;51.53087800;7.23266500;2023-09-19T12:52:37;20.80;96.20
13211;DHT22;6670;51.53087800;7.23266500;2023-09-19T12:55:05;20.60;96.00
13211;DHT22;6670;51.53087800;7.23266500;2023-09-19T12:57:33;21.00;95.50
13211;DHT22;6670;51.53087800;7.23266500;2023-09-19T13:00:03;20.60;95.60
13211;DHT22;6670;51.53087800;7.23266500;2023-09-19T13:02:31;21.10;95.60
13211;DHT22;6670;51.53087800;7.23266500;2023-09-19T13:04:59;21.30;94.50
13211;DHT22;6670;51.53087800;7.23266500;2023-09-19T13:07:40;21.20;94.40
13211;DHT22;6670;51.53087800;7.23266500;2023-09-19T13:10:10;21.20;94.80
13211;DHT22;6670;51.53087800;7.23266500;2023-09-19T13:12:38;21.20;94.20
13211;DHT22;6670;51.53087800;7.23266500;2023-09-19T13:15:10;21.10;94.10
13211;DHT22;6670;51.53087800;7.23266500;2023-09-19T13:17:43;21.00;93.80
13211;DHT22;6670;51.53087800;7.23266500;2023-09-19T13:20:21;20.70;93.60
13211;DHT22;6670;51.53087800;7.23266500;2023-09-19T13:22:53;20.80;94.10
13211;DHT22;6670;51.53087800;7.23266500;2023-09-19T13:25:25;21.00;93.80
13211;DHT22;6670;51.53087800;7.23266500;2023-09-19T13:27:56;21.40;93.70
13211;DHT22;6670;51.53087800;7.23266500;2023-09-19T13:30:27;21.60;92.60
13211;DHT22;6670;51.53087800;7.23266500;2023-09-19T13:33:05;21.50;92.60
13211;DHT22;6670;51.53087800;7.23266500;2023-09-19T13:35:33;21.40;92.80
13211;DHT22;6670;51.53087800;7.23266500;2023-09-19T13:38:00;21.70;92.90
13211;DHT22;6670;51.53087800;7.23266500;2023-09-19T13:40:28;21.50;93.20
13211;DHT22;6670;51.53087800;7.23266500;2023-09-19T13:42:57;21.30;93.20
13211;DHT22;6670;51.53087800;7.23266500;2023-09-19T13:45:26;21.30;93.30
13211;DHT22;6670;51.53087800;7.23266500;2023-09-19T13:47:56;21.60;93.60
13211;DHT22;6670;51.53087800;7.23266500;2023-09-19T13:50:25;21.80;92.40
13211;DHT22;6670;51.53087800;7.23266500;2023-09-19T13:52:55;21.30;93.60
13211;DHT22;6670;51.53087800;7.23266500;2023-09-19T13:55:23;21.40;93.50
13211;DHT22;6670;51.53087800;7.23266500;2023-09-19T13:57:51;21.50;93.30
13211;DHT22;6670;51.53087800;7.23266500;2023-09-19T14:00:20;21.20;93.10
13211;DHT22;6670;51.53087800;7.23266500;2023-09-19T14:02:50;21.10;93.80